sensor_id;sensor_type;location;lat;lon;timestamp;P1;durP1;ratioP1;P2;durP2;ratioP2
25984;SDS011;66753;53.848;10.658;2023-02-05T00:04:42;3.15;;;1.02;;
25984;SDS011;66753;53.848;10.658;2023-02-05T00:09:42;3.60;;;1.00;;
25984;SDS011;66753;53.848;10.658;2023-02-05T00:14:43;2.70;;;1.00;;
25984;SDS011;66753;53.848;10.658;2023-02-05T00:19:44;2.80;;;0.57;;
25984;SDS011;66753;53.848;10.658;2023-02-05T00:24:44;4.00;;;0.98;;
25984;SDS011;66753;53.848;10.658;2023-02-05T00:29:44;2.10;;;0.70;;
25984;SDS011;66753;53.848;10.658;2023-02-05T00:34:45;2.40;;;0.97;;
25984;SDS011;66753;53.848;10.658;2023-02-05T00:39:45;1.87;;;0.80;;
25984;SDS011;66753;53.848;10.658;2023-02-05T00:44:46;3.20;;;1.20;;
25984;SDS011;66753;53.848;10.658;2023-02-05T00:49:46;3.50;;;0.93;;
25984;SDS011;66753;53.848;10.658;2023-02-05T00:54:46;1.23;;;0.60;;
25984;SDS011;66753;53.848;10.658;2023-02-05T00:59:47;2.50;;;0.80;;
25984;SDS011;66753;53.848;10.658;2023-02-05T01:04:48;2.20;;;0.73;;
25984;SDS011;66753;53.848;10.658;2023-02-05T01:09:50;3.22;;;1.00;;
25984;SDS011;66753;53.848;10.658;2023-02-05T01:14:50;2.20;;;0.70;;
25984;SDS011;66753;53.848;10.658;2023-02-05T01:19:52;3.17;;;1.02;;
25984;SDS011;66753;53.848;10.658;2023-02-05T01:24:55;3.10;;;1.23;;
25984;SDS011;66753;53.848;10.658;2023-02-05T01:29:56;2.75;;;0.70;;
25984;SDS011;66753;53.848;10.658;2023-02-05T01:34:56;2.47;;;0.93;;
25984;SDS011;66753;53.848;10.658;2023-02-05T01:39:57;2.83;;;0.70;;
25984;SDS011;66753;53.848;10.658;2023-02-05T01:50:31;1.13;;;0.60;;
25984;SDS011;66753;53.848;10.658;2023-02-05T01:55:36;2.28;;;0.77;;
25984;SDS011;66753;53.848;10.658;2023-02-05T02:00:42;1.67;;;0.63;;
25984;SDS011;66753;53.848;10.658;2023-02-05T02:05:44;4.82;;;1.20;;
25984;SDS011;66753;53.848;10.658;2023-02-05T02:10:44;2.38;;;0.80;;
25984;SDS011;66753;53.848;10.658;2023-02-05T02:15:47;2.72;;;0.60;;
25984;SDS011;66753;53.848;10.658;2023-02-05T02:20:51;1.67;;;0.57;;
25984;SDS011;66753;53.848;10.658;2023-02-05T02:31:44;2.97;;;1.08;;
25984;SDS011;66753;53.848;10.658;2023-02-05T02:42:28;2.42;;;0.50;;
25984;SDS011;66753;53.848;10.658;2023-02-05T02:47:35;2.17;;;0.70;;
25984;SDS011;66753;53.848;10.658;2023-02-05T02:52:38;3.03;;;0.60;;
25984;SDS011;66753;53.848;10.658;2023-02-05T02:57:42;1.65;;;0.57;;
25984;SDS011;66753;53.848;10.658;2023-02-05T03:02:45;1.30;;;0.45;;
25984;SDS011;66753;53.848;10.658;2023-02-05T03:07:48;1.70;;;0.40;;
25984;SDS011;66753;53.848;10.658;2023-02-05T03:12:53;1.20;;;0.47;;
25984;SDS011;66753;53.848;10.658;2023-02-05T03:17:54;1.20;;;0.50;;
25984;SDS011;66753;53.848;10.658;2023-02-05T03:22:55;1.27;;;0.40;;
25984;SDS011;66753;53.848;10.658;2023-02-05T03:27:56;1.73;;;0.55;;
25984;SDS011;66753;53.848;10.658;2023-02-05T03:59:44;2.67;;;0.68;;
25984;SDS011;66753;53.848;10.658;2023-02-05T04:04:46;2.05;;;0.50;;
25984;SDS011;66753;53.848;10.658;2023-02-05T04:09:46;2.30;;;0.50;;
25984;SDS011;66753;53.848;10.658;2023-02-05T04:14:47;1.20;;;0.40;;
25984;SDS011;66753;53.848;10.658;2023-02-05T04:19:47;0.90;;;0.43;;
25984;SDS011;66753;53.848;10.658;2023-02-05T04:24:48;4.00;;;0.60;;
25984;SDS011;66753;53.848;10.658;2023-02-05T04:29:48;1.30;;;0.33;;
25984;SDS011;66753;53.848;10.658;2023-02-05T04:34:49;2.47;;;0.50;;
25984;SDS011;66753;53.848;10.658;2023-02-05T04:39:49;1.88;;;0.60;;
25984;SDS011;66753;53.848;10.658;2023-02-05T04:44:50;1.40;;;0.40;;
25984;SDS011;66753;53.848;10.658;2023-02-05T04:49:51;1.80;;;0.68;;
25984;SDS011;66753;53.848;10.658;2023-02-05T04:54:52;1.60;;;0.50;;
25984;SDS011;66753;53.848;10.658;2023-02-05T04:59:52;1.15;;;0.45;;
25984;SDS011;66753;53.848;10.658;2023-02-05T05:04:53;4.53;;;0.80;;
25984;SDS011;66753;53.848;10.658;2023-02-05T05:09:53;1.17;;;0.50;;
25984;SDS011;66753;53.848;10.658;2023-02-05T05:14:54;1.30;;;0.33;;
25984;SDS011;66753;53.848;10.658;2023-02-05T05:19:54;1.40;;;0.52;;
25984;SDS011;66753;53.848;10.658;2023-02-05T05:24:54;1.10;;;0.30;;
25984;SDS011;66753;53.848;10.658;2023-02-05T05:29:58;1.85;;;0.65;;
25984;SDS011;66753;53.848;10.658;2023-02-05T05:34:58;2.20;;;0.53;;
25984;SDS011;66753;53.848;10.658;2023-02-05T05:40:00;1.75;;;0.52;;
25984;SDS011;66753;53.848;10.658;2023-02-05T05:45:19;3.00;;;0.65;;
25984;SDS011;66753;53.848;10.658;2023-02-05T05:50:19;1.80;;;0.57;;
25984;SDS011;66753;53.848;10.658;2023-02-05T05:55:22;2.73;;;0.60;;
25984;SDS011;66753;53.848;10.658;2023-02-05T06:00:23;1.48;;;0.60;;
25984;SDS011;66753;53.848;10.658;2023-02-05T06:05:23;1.83;;;0.50;;
25984;SDS011;66753;53.848;10.658;2023-02-05T06:10:24;1.30;;;0.47;;
25984;SDS011;66753;53.848;10.658;2023-02-05T06:15:25;1.60;;;0.45;;
25984;SDS011;66753;53.848;10.658;2023-02-05T06:20:28;2.08;;;0.60;;
25984;SDS011;66753;53.848;10.658;2023-02-05T06:25:28;2.47;;;0.63;;
25984;SDS011;66753;53.848;10.658;2023-02-05T06:30:29;3.30;;;0.67;;
25984;SDS011;66753;53.848;10.658;2023-02-05T06:35:29;1.05;;;0.43;;
25984;SDS011;66753;53.848;10.658;2023-02-05T06:40:30;1.02;;;0.50;;
25984;SDS011;66753;53.848;10.658;2023-02-05T06:45:30;2.60;;;0.70;;
25984;SDS011;66753;53.848;10.658;2023-02-05T06:50:31;2.30;;;1.00;;
25984;SDS011;66753;53.848;10.658;2023-02-05T06:55:31;2.17;;;0.80;;
25984;SDS011;66753;53.848;10.658;2023-02-05T07:00:32;2.17;;;0.60;;
25984;SDS011;66753;53.848;10.658;2023-02-05T07:05:33;1.52;;;0.60;;
25984;SDS011;66753;53.848;10.658;2023-02-05T07:10:33;2.07;;;0.60;;
25984;SDS011;66753;53.848;10.658;2023-02-05T07:15:34;2.17;;;0.73;;
25984;SDS011;66753;53.848;10.658;2023-02-05T07:20:36;1.92;;;0.77;;
25984;SDS011;66753;53.848;10.658;2023-02-05T07:25:36;2.13;;;0.90;;
25984;SDS011;66753;53.848;10.658;2023-02-05T07:30:37;2.53;;;0.80;;
25984;SDS011;66753;53.848;10.658;2023-02-05T07:35:37;2.10;;;0.90;;
25984;SDS011;66753;53.848;10.658;2023-02-05T07:40:38;1.05;;;0.50;;
25984;SDS011;66753;53.848;10.658;2023-02-05T07:45:38;2.20;;;0.80;;
25984;SDS011;66753;53.848;10.658;2023-02-05T07:50:42;1.87;;;0.90;;
25984;SDS011;66753;53.848;10.658;2023-02-05T07:55:44;1.85;;;0.65;;
25984;SDS011;66753;53.848;10.658;2023-02-05T08:00:45;2.33;;;0.80;;
25984;SDS011;66753;53.848;10.658;2023-02-05T08:05:45;2.42;;;0.90;;
25984;SDS011;66753;53.848;10.658;2023-02-05T08:10:46;1.63;;;1.00;;
25984;SDS011;66753;53.848;10.658;2023-02-05T08:15:46;4.03;;;1.00;;
25984;SDS011;66753;53.848;10.658;2023-02-05T08:20:47;4.03;;;1.27;;
25984;SDS011;66753;53.848;10.658;2023-02-05T08:25:54;2.38;;;0.90;;
25984;SDS011;66753;53.848;10.658;2023-02-05T08:30:55;2.03;;;0.88;;
25984;SDS011;66753;53.848;10.658;2023-02-05T08:35:56;2.15;;;0.88;;
25984;SDS011;66753;53.848;10.658;2023-02-05T08:40:56;3.15;;;1.02;;
25984;SDS011;66753;53.848;10.658;2023-02-05T08:45:57;5.07;;;2.20;;
25984;SDS011;66753;53.848;10.658;2023-02-05T08:50:57;3.17;;;1.30;;
25984;SDS011;66753;53.848;10.658;2023-02-05T08:56:02;4.15;;;1.27;;
25984;SDS011;66753;53.848;10.658;2023-02-05T09:01:05;4.55;;;1.08;;
25984;SDS011;66753;53.848;10.658;2023-02-05T09:06:09;2.67;;;1.00;;
25984;SDS011;66753;53.848;10.658;2023-02-05T09:11:11;2.03;;;0.73;;
25984;SDS011;66753;53.848;10.658;2023-02-05T09:16:12;1.80;;;0.90;;
25984;SDS011;66753;53.848;10.658;2023-02-05T09:21:12;2.50;;;1.10;;
25984;SDS011;66753;53.848;10.658;2023-02-05T09:26:13;3.37;;;1.20;;
25984;SDS011;66753;53.848;10.658;2023-02-05T09:31:14;2.70;;;0.90;;
25984;SDS011;66753;53.848;10.658;2023-02-05T09:36:20;2.10;;;0.90;;
25984;SDS011;66753;53.848;10.658;2023-02-05T09:41:25;1.95;;;0.90;;
25984;SDS011;66753;53.848;10.658;2023-02-05T09:52:06;3.08;;;1.05;;
25984;SDS011;66753;53.848;10.658;2023-02-05T09:57:16;2.30;;;0.85;;
25984;SDS011;66753;53.848;10.658;2023-02-05T10:02:28;2.40;;;0.88;;
25984;SDS011;66753;53.848;10.658;2023-02-05T10:24:05;2.58;;;1.10;;
25984;SDS011;66753;53.848;10.658;2023-02-05T10:34:29;3.20;;;1.00;;
25984;SDS011;66753;53.848;10.658;2023-02-05T10:39:32;3.60;;;1.20;;
25984;SDS011;66753;53.848;10.658;2023-02-05T10:44:33;2.50;;;1.00;;
25984;SDS011;66753;53.848;10.658;2023-02-05T10:54:49;4.18;;;1.30;;
25984;SDS011;66753;53.848;10.658;2023-02-05T10:59:52;2.10;;;1.00;;
25984;SDS011;66753;53.848;10.658;2023-02-05T11:05:01;2.80;;;1.05;;
25984;SDS011;66753;53.848;10.658;2023-02-05T11:15:30;2.38;;;0.98;;
25984;SDS011;66753;53.848;10.658;2023-02-05T11:20:33;2.55;;;1.20;;
25984;SDS011;66753;53.848;10.658;2023-02-05T11:25:36;3.47;;;1.20;;
25984;SDS011;66753;53.848;10.658;2023-02-05T11:30:48;2.88;;;1.10;;
25984;SDS011;66753;53.848;10.658;2023-02-05T11:36:04;3.83;;;1.40;;
25984;SDS011;66753;53.848;10.658;2023-02-05T11:41:08;3.50;;;1.52;;
25984;SDS011;66753;53.848;10.658;2023-02-05T11:46:17;3.28;;;1.80;;
25984;SDS011;66753;53.848;10.658;2023-02-05T11:56:35;3.50;;;1.60;;
25984;SDS011;66753;53.848;10.658;2023-02-05T12:01:35;3.13;;;1.40;;
25984;SDS011;66753;53.848;10.658;2023-02-05T12:06:37;4.00;;;1.60;;
25984;SDS011;66753;53.848;10.658;2023-02-05T12:22:50;2.78;;;1.42;;
25984;SDS011;66753;53.848;10.658;2023-02-05T12:43:46;3.47;;;1.60;;
25984;SDS011;66753;53.848;10.658;2023-02-05T12:48:53;3.53;;;1.73;;
25984;SDS011;66753;53.848;10.658;2023-02-05T12:54:10;3.63;;;1.35;;
25984;SDS011;66753;53.848;10.658;2023-02-05T12:59:14;3.72;;;1.70;;
25984;SDS011;66753;53.848;10.658;2023-02-05T13:04:37;3.92;;;1.50;;
25984;SDS011;66753;53.848;10.658;2023-02-05T13:09:47;3.50;;;1.50;;
25984;SDS011;66753;53.848;10.658;2023-02-05T13:15:14;4.22;;;1.65;;
25984;SDS011;66753;53.848;10.658;2023-02-05T13:20:38;2.97;;;1.60;;
25984;SDS011;66753;53.848;10.658;2023-02-05T13:26:04;2.88;;;1.40;;
25984;SDS011;66753;53.848;10.658;2023-02-05T13:41:50;3.65;;;1.30;;
25984;SDS011;66753;53.848;10.658;2023-02-05T13:58:10;3.53;;;1.52;;
25984;SDS011;66753;53.848;10.658;2023-02-05T14:03:20;4.10;;;1.50;;
25984;SDS011;66753;53.848;10.658;2023-02-05T14:08:26;4.18;;;1.40;;
25984;SDS011;66753;53.848;10.658;2023-02-05T14:13:35;5.13;;;1.55;;
25984;SDS011;66753;53.848;10.658;2023-02-05T14:28:46;3.55;;;1.63;;
25984;SDS011;66753;53.848;10.658;2023-02-05T14:33:48;5.10;;;1.88;;
25984;SDS011;66753;53.848;10.658;2023-02-05T14:44:03;4.38;;;2.15;;
25984;SDS011;66753;53.848;10.658;2023-02-05T14:49:40;6.13;;;2.80;;
25984;SDS011;66753;53.848;10.658;2023-02-05T14:59:55;3.25;;;1.65;;
25984;SDS011;66753;53.848;10.658;2023-02-05T15:04:57;4.35;;;1.90;;
25984;SDS011;66753;53.848;10.658;2023-02-05T15:10:02;3.85;;;1.60;;
25984;SDS011;66753;53.848;10.658;2023-02-05T15:15:26;3.88;;;1.58;;
25984;SDS011;66753;53.848;10.658;2023-02-05T15:20:35;7.78;;;2.50;;
25984;SDS011;66753;53.848;10.658;2023-02-05T15:26:00;4.65;;;1.83;;
25984;SDS011;66753;53.848;10.658;2023-02-05T15:36:11;5.88;;;1.90;;
25984;SDS011;66753;53.848;10.658;2023-02-05T15:41:16;4.32;;;1.65;;
25984;SDS011;66753;53.848;10.658;2023-02-05T15:46:20;5.32;;;2.20;;
25984;SDS011;66753;53.848;10.658;2023-02-05T15:56:28;5.97;;;2.85;;
25984;SDS011;66753;53.848;10.658;2023-02-05T16:01:35;7.40;;;2.67;;
25984;SDS011;66753;53.848;10.658;2023-02-05T16:06:38;6.70;;;2.25;;
25984;SDS011;66753;53.848;10.658;2023-02-05T16:11:38;3.53;;;2.00;;
25984;SDS011;66753;53.848;10.658;2023-02-05T16:22:38;4.95;;;1.85;;
25984;SDS011;66753;53.848;10.658;2023-02-05T16:27:43;5.68;;;2.55;;
25984;SDS011;66753;53.848;10.658;2023-02-05T16:32:47;3.83;;;2.10;;
25984;SDS011;66753;53.848;10.658;2023-02-05T16:37:48;6.68;;;2.80;;
25984;SDS011;66753;53.848;10.658;2023-02-05T16:42:49;3.95;;;2.20;;
25984;SDS011;66753;53.848;10.658;2023-02-05T16:53:27;4.10;;;2.33;;
25984;SDS011;66753;53.848;10.658;2023-02-05T17:03:49;6.90;;;2.90;;
25984;SDS011;66753;53.848;10.658;2023-02-05T17:08:51;5.15;;;2.53;;
25984;SDS011;66753;53.848;10.658;2023-02-05T17:14:08;4.90;;;2.03;;
25984;SDS011;66753;53.848;10.658;2023-02-05T17:19:23;5.32;;;2.50;;
25984;SDS011;66753;53.848;10.658;2023-02-05T17:24:25;3.88;;;2.00;;
25984;SDS011;66753;53.848;10.658;2023-02-05T17:29:26;6.93;;;2.17;;
25984;SDS011;66753;53.848;10.658;2023-02-05T17:34:26;5.03;;;2.27;;
25984;SDS011;66753;53.848;10.658;2023-02-05T17:39:26;4.97;;;2.37;;
25984;SDS011;66753;53.848;10.658;2023-02-05T17:44:27;5.17;;;2.33;;
25984;SDS011;66753;53.848;10.658;2023-02-05T17:49:28;3.90;;;2.40;;
25984;SDS011;66753;53.848;10.658;2023-02-05T17:54:29;5.63;;;2.40;;
25984;SDS011;66753;53.848;10.658;2023-02-05T17:59:30;5.20;;;2.38;;
25984;SDS011;66753;53.848;10.658;2023-02-05T18:04:31;6.38;;;2.38;;
25984;SDS011;66753;53.848;10.658;2023-02-05T18:09:31;6.90;;;2.90;;
25984;SDS011;66753;53.848;10.658;2023-02-05T18:14:31;7.00;;;2.50;;
25984;SDS011;66753;53.848;10.658;2023-02-05T18:19:32;6.87;;;2.73;;
25984;SDS011;66753;53.848;10.658;2023-02-05T18:24:33;5.20;;;2.60;;
25984;SDS011;66753;53.848;10.658;2023-02-05T18:29:38;7.97;;;4.22;;
25984;SDS011;66753;53.848;10.658;2023-02-05T18:34:38;7.30;;;4.28;;
25984;SDS011;66753;53.848;10.658;2023-02-05T18:39:39;6.40;;;3.63;;
25984;SDS011;66753;53.848;10.658;2023-02-05T18:44:40;8.30;;;3.50;;
25984;SDS011;66753;53.848;10.658;2023-02-05T18:49:40;8.30;;;3.53;;
25984;SDS011;66753;53.848;10.658;2023-02-05T18:54:40;7.37;;;3.43;;
25984;SDS011;66753;53.848;10.658;2023-02-05T18:59:43;7.22;;;3.60;;
25984;SDS011;66753;53.848;10.658;2023-02-05T19:04:44;5.90;;;3.22;;
25984;SDS011;66753;53.848;10.658;2023-02-05T19:09:45;7.30;;;4.15;;
25984;SDS011;66753;53.848;10.658;2023-02-05T19:14:47;8.02;;;3.58;;
25984;SDS011;66753;53.848;10.658;2023-02-05T19:19:48;9.20;;;3.88;;
25984;SDS011;66753;53.848;10.658;2023-02-05T19:24:48;7.50;;;4.00;;
25984;SDS011;66753;53.848;10.658;2023-02-05T19:29:49;10.90;;;4.67;;
25984;SDS011;66753;53.848;10.658;2023-02-05T19:34:49;8.23;;;4.27;;
25984;SDS011;66753;53.848;10.658;2023-02-05T19:39:49;10.03;;;4.87;;
25984;SDS011;66753;53.848;10.658;2023-02-05T19:44:50;10.37;;;5.27;;
25984;SDS011;66753;53.848;10.658;2023-02-05T19:49:57;10.95;;;4.88;;
25984;SDS011;66753;53.848;10.658;2023-02-05T19:54:57;10.50;;;5.00;;
25984;SDS011;66753;53.848;10.658;2023-02-05T19:59:58;9.17;;;4.90;;
25984;SDS011;66753;53.848;10.658;2023-02-05T20:04:58;11.23;;;4.90;;
25984;SDS011;66753;53.848;10.658;2023-02-05T20:09:58;14.00;;;5.67;;
25984;SDS011;66753;53.848;10.658;2023-02-05T20:14:59;13.37;;;5.47;;
25984;SDS011;66753;53.848;10.658;2023-02-05T20:19:59;15.60;;;6.60;;
25984;SDS011;66753;53.848;10.658;2023-02-05T20:25:00;12.25;;;5.70;;
25984;SDS011;66753;53.848;10.658;2023-02-05T20:30:00;15.60;;;7.23;;
25984;SDS011;66753;53.848;10.658;2023-02-05T20:35:19;13.45;;;6.30;;
25984;SDS011;66753;53.848;10.658;2023-02-05T20:40:20;14.45;;;6.80;;
25984;SDS011;66753;53.848;10.658;2023-02-05T20:45:20;12.93;;;6.20;;
25984;SDS011;66753;53.848;10.658;2023-02-05T20:50:20;14.50;;;6.93;;
25984;SDS011;66753;53.848;10.658;2023-02-05T20:55:21;13.33;;;6.73;;
25984;SDS011;66753;53.848;10.658;2023-02-05T21:00:21;14.33;;;6.97;;
25984;SDS011;66753;53.848;10.658;2023-02-05T21:05:24;13.98;;;6.82;;
25984;SDS011;66753;53.848;10.658;2023-02-05T21:10:24;13.57;;;6.43;;
25984;SDS011;66753;53.848;10.658;2023-02-05T21:15:24;14.63;;;7.70;;
25984;SDS011;66753;53.848;10.658;2023-02-05T21:20:26;17.30;;;7.05;;
25984;SDS011;66753;53.848;10.658;2023-02-05T21:25:26;16.75;;;7.18;;
25984;SDS011;66753;53.848;10.658;2023-02-05T21:30:26;17.10;;;7.77;;
25984;SDS011;66753;53.848;10.658;2023-02-05T21:35:27;22.50;;;7.67;;
25984;SDS011;66753;53.848;10.658;2023-02-05T21:40:27;15.87;;;8.30;;
25984;SDS011;66753;53.848;10.658;2023-02-05T21:45:28;19.50;;;8.10;;
25984;SDS011;66753;53.848;10.658;2023-02-05T21:50:28;17.03;;;8.47;;
25984;SDS011;66753;53.848;10.658;2023-02-05T21:55:29;19.10;;;8.57;;
25984;SDS011;66753;53.848;10.658;2023-02-05T22:00:29;17.23;;;8.60;;
25984;SDS011;66753;53.848;10.658;2023-02-05T22:05:29;16.80;;;7.57;;
25984;SDS011;66753;53.848;10.658;2023-02-05T22:10:30;17.97;;;8.83;;
25984;SDS011;66753;53.848;10.658;2023-02-05T22:15:30;19.20;;;8.07;;
25984;SDS011;66753;53.848;10.658;2023-02-05T22:20:31;18.20;;;7.20;;
25984;SDS011;66753;53.848;10.658;2023-02-05T22:25:31;15.13;;;8.27;;
25984;SDS011;66753;53.848;10.658;2023-02-05T22:30:31;16.43;;;8.13;;
25984;SDS011;66753;53.848;10.658;2023-02-05T22:35:32;17.17;;;7.30;;
25984;SDS011;66753;53.848;10.658;2023-02-05T22:40:33;18.45;;;8.50;;
25984;SDS011;66753;53.848;10.658;2023-02-05T22:45:33;15.87;;;7.50;;
25984;SDS011;66753;53.848;10.658;2023-02-05T22:50:37;17.60;;;8.03;;
25984;SDS011;66753;53.848;10.658;2023-02-05T22:55:39;16.92;;;6.93;;
25984;SDS011;66753;53.848;10.658;2023-02-05T23:00:39;16.95;;;6.90;;
25984;SDS011;66753;53.848;10.658;2023-02-05T23:05:40;16.77;;;6.90;;
25984;SDS011;66753;53.848;10.658;2023-02-05T23:10:40;16.03;;;6.37;;
25984;SDS011;66753;53.848;10.658;2023-02-05T23:15:41;13.13;;;6.28;;
25984;SDS011;66753;53.848;10.658;2023-02-05T23:20:41;12.83;;;5.60;;
25984;SDS011;66753;53.848;10.658;2023-02-05T23:25:41;15.17;;;6.23;;
25984;SDS011;66753;53.848;10.658;2023-02-05T23:30:48;12.70;;;5.72;;
25984;SDS011;66753;53.848;10.658;2023-02-05T23:35:49;12.97;;;5.53;;
25984;SDS011;66753;53.848;10.658;2023-02-05T23:40:50;12.53;;;5.37;;
25984;SDS011;66753;53.848;10.658;2023-02-05T23:45:51;15.18;;;5.47;;
25984;SDS011;66753;53.848;10.658;2023-02-05T23:50:53;13.15;;;5.20;;
25984;SDS011;66753;53.848;10.658;2023-02-05T23:55:55;15.00;;;5.93;;
